createdAt,value
2023-02-22T00:03:08.105Z,17.00
2023-02-22T00:08:11.453Z,19.75
2023-02-22T00:13:15.647Z,21.00
2023-02-22T00:18:19.298Z,18.50
2023-02-22T00:23:23.590Z,18.25
2023-02-22T00:28:27.884Z,17.25
2023-02-22T00:33:31.779Z,20.25
2023-02-22T00:38:34.597Z,19.75
2023-02-22T00:43:39.816Z,19.25
2023-02-22T00:48:42.649Z,18.25
2023-02-22T00:53:46.524Z,16.75
2023-02-22T00:58:50.812Z,18.25
2023-02-22T01:03:53.661Z,16.75
2023-02-22T01:08:56.582Z,18.00
2023-02-22T01:14:01.514Z,16.75
2023-02-22T01:19:06.159Z,17.00
2023-02-22T01:24:09.135Z,16.00
2023-02-22T01:29:15.408Z,17.00
2023-02-22T01:34:18.371Z,16.50
2023-02-22T01:39:21.181Z,17.00
2023-02-22T01:44:30.226Z,16.50
2023-02-22T01:49:37.500Z,15.75
2023-02-22T01:54:42.770Z,17.00
2023-02-22T01:59:48.361Z,16.40
2023-02-22T02:04:51.308Z,16.40
2023-02-22T02:09:57.689Z,14.80
2023-02-22T02:15:20.317Z,15.80
2023-02-22T02:20:27.777Z,15.00
2023-02-22T02:25:57.264Z,15.00
2023-02-22T02:31:32.767Z,15.80
2023-02-22T02:36:42.722Z,16.00
2023-02-22T02:41:46.446Z,14.20
2023-02-22T02:46:51.626Z,12.80
2023-02-22T02:51:57.304Z,13.60
2023-02-22T02:57:00.038Z,15.80
2023-02-22T03:02:12.816Z,13.40
2023-02-22T03:07:30.084Z,14.80
2023-02-22T03:12:39.891Z,12.00
2023-02-22T03:17:47.575Z,14.40
2023-02-22T03:22:56.411Z,14.20
2023-02-22T03:28:02.337Z,13.00
2023-02-22T03:33:08.999Z,13.60
2023-02-22T03:38:14.243Z,14.60
2023-02-22T03:43:19.051Z,13.00
2023-02-22T03:48:25.189Z,12.00
2023-02-22T03:53:30.510Z,11.40
2023-02-22T03:58:33.615Z,12.00
2023-02-22T04:03:36.417Z,12.00
2023-02-22T04:08:40.974Z,9.80
2023-02-22T04:13:44.006Z,11.20
2023-02-22T04:18:47.422Z,10.20
2023-02-22T04:23:55.414Z,11.00
2023-02-22T04:28:58.346Z,11.00
2023-02-22T04:34:04.713Z,11.80
2023-02-22T04:39:12.506Z,10.40
2023-02-22T04:44:15.443Z,11.20
2023-02-22T04:49:18.434Z,8.20
2023-02-22T04:54:24.201Z,10.40
2023-02-22T04:59:27.598Z,10.00
2023-02-22T05:04:36.901Z,10.00
2023-02-22T05:09:41.064Z,11.80
2023-02-22T05:14:44.489Z,10.00
2023-02-22T05:19:47.648Z,10.00
2023-02-22T05:24:52.557Z,11.00
2023-02-22T05:29:55.308Z,8.00
2023-02-22T05:34:58.038Z,11.00
2023-02-22T05:40:02.178Z,9.80
2023-02-22T05:45:05.390Z,9.60
2023-02-22T05:50:09.446Z,10.00
2023-02-22T05:55:14.757Z,8.00
2023-02-22T06:00:19.178Z,9.00
2023-02-22T06:05:22.041Z,8.20
2023-02-22T06:10:26.446Z,7.60
2023-02-22T06:15:29.875Z,9.00
2023-02-22T06:20:33.336Z,9.20
2023-02-22T06:25:37.466Z,9.60
2023-02-22T06:30:41.048Z,7.00
2023-02-22T06:35:43.814Z,10.00
2023-02-22T06:40:48.091Z,9.00
2023-02-22T06:45:50.905Z,7.00
2023-02-22T06:50:53.922Z,7.00
2023-02-22T06:55:58.105Z,8.60
2023-02-22T07:01:02.761Z,6.40
2023-02-22T07:06:07.321Z,7.00
2023-02-22T07:11:11.698Z,6.40
2023-02-22T07:16:14.561Z,7.00
2023-02-22T07:21:19.097Z,7.00
2023-02-22T07:26:23.559Z,7.00
2023-02-22T07:31:28.791Z,7.00
2023-02-22T07:36:32.565Z,6.00
2023-02-22T07:41:36.845Z,7.00
2023-02-22T07:46:48.316Z,6.20
2023-02-22T07:51:51.156Z,6.20
2023-02-22T07:56:55.365Z,6.00
2023-02-22T08:01:58.172Z,11.80
2023-02-22T08:07:01.205Z,10.00
2023-02-22T08:12:05.848Z,12.20
2023-02-22T08:17:09.472Z,12.40
2023-02-22T08:22:12.349Z,10.80
2023-02-22T08:27:16.461Z,8.40
2023-02-22T08:32:19.417Z,6.80
2023-02-22T08:37:22.261Z,7.20
2023-02-22T08:42:26.452Z,5.60
2023-02-22T08:47:29.226Z,6.00
2023-02-22T08:52:32.104Z,6.00
2023-02-22T08:57:36.269Z,10.40
2023-02-22T09:02:39.141Z,7.80
2023-02-22T09:07:43.038Z,7.80
2023-02-22T09:12:47.280Z,7.80
2023-02-22T09:17:50.033Z,6.00
2023-02-22T09:22:53.208Z,5.00
2023-02-22T09:27:57.583Z,5.60
2023-02-22T09:33:01.652Z,5.40
2023-02-22T09:38:06.180Z,6.00
2023-02-22T09:43:21.740Z,5.00
2023-02-22T09:48:25.266Z,5.00
2023-02-22T09:53:30.407Z,6.00
2023-02-22T09:58:36.719Z,5.80
2023-02-22T10:03:46.319Z,5.60
2023-02-22T10:08:50.173Z,6.00
2023-02-22T10:13:57.979Z,5.00
2023-02-22T10:19:08.516Z,5.80
2023-02-22T10:24:16.198Z,5.80
2023-02-22T10:29:22.383Z,5.00
2023-02-22T10:34:26.200Z,5.60
2023-02-22T10:39:30.992Z,4.60
2023-02-22T10:44:35.343Z,5.00
2023-02-22T10:49:42.146Z,5.00
2023-02-22T10:54:46.577Z,5.60
2023-02-22T10:59:51.977Z,5.00
2023-02-22T11:04:55.569Z,4.80
2023-02-22T11:09:59.543Z,5.40
2023-02-22T11:15:26.601Z,5.00
2023-02-22T11:20:34.385Z,5.00
2023-02-22T11:25:38.640Z,3.00
2023-02-22T11:30:43.972Z,6.00
2023-02-22T11:35:52.640Z,5.80
2023-02-22T11:41:14.491Z,5.00
2023-02-22T11:46:20.029Z,4.20
2023-02-22T11:51:28.250Z,5.00
2023-02-22T11:56:38.083Z,5.60
2023-02-22T12:01:46.370Z,6.00
2023-02-22T12:06:52.451Z,5.00
2023-02-22T12:12:00.854Z,6.00
2023-02-22T12:17:20.441Z,5.00
2023-02-22T12:22:25.674Z,5.00
2023-02-22T12:27:31.122Z,5.00
2023-02-22T12:32:38.119Z,5.00
2023-02-22T12:37:53.427Z,5.80
2023-02-22T12:42:59.624Z,5.60
2023-02-22T12:48:11.053Z,5.60
2023-02-22T12:53:15.438Z,5.40
2023-02-22T12:58:23.137Z,5.20
2023-02-22T13:03:31.695Z,3.00
2023-02-22T13:08:36.745Z,5.60
2023-02-22T13:13:42.366Z,5.60
2023-02-22T13:18:49.546Z,5.00
2023-02-22T13:23:55.119Z,45.00
2023-02-22T13:29:00.191Z,71.75
2023-02-22T13:34:32.906Z,73.00
2023-02-22T13:39:42.129Z,109.75
2023-02-22T13:45:03.292Z,114.00
2023-02-22T13:50:25.786Z,123.00
2023-02-22T13:55:32.752Z,135.25
2023-02-22T14:00:47.014Z,143.67
2023-02-22T14:05:52.686Z,143.33
2023-02-22T14:10:56.147Z,153.25
2023-02-22T14:16:19.681Z,123.50
2023-02-22T14:21:24.744Z,108.00
2023-02-22T14:26:28.619Z,52.50
2023-02-22T14:31:37.375Z,82.67
2023-02-22T14:36:45.804Z,77.00
2023-02-22T14:41:53.823Z,78.33
2023-02-22T14:46:57.615Z,81.67
2023-02-22T14:52:05.642Z,75.50
2023-02-22T14:57:14.810Z,76.75
2023-02-22T15:02:19.824Z,73.25
2023-02-22T15:07:27.651Z,72.25
2023-02-22T15:12:30.887Z,75.75
2023-02-22T15:17:34.010Z,72.50
2023-02-22T15:22:38.180Z,73.00
2023-02-22T15:27:40.944Z,72.50
2023-02-22T15:33:01.295Z,70.00
2023-02-22T15:38:08.266Z,70.50
2023-02-22T15:43:18.815Z,69.25
2023-02-22T15:48:21.709Z,67.25
2023-02-22T15:53:27.421Z,67.50
2023-02-22T15:58:30.227Z,65.00
2023-02-22T16:03:38.657Z,67.75
2023-02-22T16:08:54.459Z,67.00
2023-02-22T16:14:00.326Z,65.25
2023-02-22T16:19:37.450Z,64.50
2023-02-22T16:24:42.363Z,65.75
2023-02-22T16:29:45.288Z,63.50
2023-02-22T16:34:48.119Z,64.50
2023-02-22T16:39:53.074Z,62.25
2023-02-22T16:44:56.005Z,61.25
2023-02-22T16:49:58.762Z,60.00
2023-02-22T16:55:02.922Z,63.00
2023-02-22T17:00:09.729Z,60.75
2023-02-22T17:05:14.804Z,62.25
2023-02-22T17:10:19.542Z,62.25
2023-02-22T17:15:27.100Z,58.75
2023-02-22T17:20:30.968Z,56.75
2023-02-22T17:25:37.695Z,60.00
2023-02-22T17:30:41.342Z,59.50
2023-02-22T17:35:44.488Z,54.75
2023-02-22T17:40:49.066Z,55.25
2023-02-22T17:45:51.934Z,55.00
2023-02-22T17:50:54.964Z,55.75
2023-02-22T17:55:59.318Z,56.25
2023-02-22T18:01:02.197Z,53.50
2023-02-22T18:06:05.949Z,54.00
2023-02-22T18:11:10.246Z,52.00
2023-02-22T18:16:13.149Z,53.25
2023-02-22T18:21:16.246Z,54.00
2023-02-22T18:26:21.336Z,49.75
2023-02-22T18:31:24.559Z,51.00
2023-02-22T18:36:27.449Z,47.25
2023-02-22T18:41:31.726Z,50.25
2023-02-22T18:46:34.638Z,47.25
2023-02-22T18:51:39.836Z,49.25
2023-02-22T18:56:44.235Z,44.25
2023-02-22T19:01:49.129Z,44.50
2023-02-22T19:06:52.137Z,44.00
2023-02-22T19:11:56.289Z,46.50
2023-02-22T19:17:01.489Z,44.00
2023-02-22T19:22:04.743Z,44.25
2023-02-22T19:27:08.954Z,43.00
2023-02-22T19:32:12.387Z,43.00
2023-02-22T19:37:15.358Z,42.75
2023-02-22T19:42:19.687Z,42.25
2023-02-22T19:47:22.567Z,41.00
2023-02-22T19:52:25.440Z,41.00
2023-02-22T19:57:29.882Z,40.50
2023-02-22T20:02:32.981Z,39.00
2023-02-22T20:07:35.870Z,38.75
2023-02-22T20:12:40.038Z,38.50
2023-02-22T20:17:44.823Z,39.25
2023-02-22T20:22:47.809Z,37.00
2023-02-22T20:27:52.024Z,39.00
2023-02-22T20:32:55.355Z,37.25
2023-02-22T20:37:58.273Z,38.00
2023-02-22T20:43:02.451Z,36.75
2023-02-22T20:48:05.567Z,36.00
2023-02-22T20:53:08.984Z,36.50
2023-02-22T20:58:13.151Z,35.50
2023-02-22T21:03:15.954Z,35.00
2023-02-22T21:08:19.013Z,36.00
2023-02-22T21:13:23.384Z,36.00
2023-02-22T21:18:26.397Z,35.25
2023-02-22T21:23:30.393Z,35.50
2023-02-22T21:28:50.441Z,35.50
2023-02-22T21:33:54.765Z,34.00
2023-02-22T21:38:58.626Z,35.00
2023-02-22T21:44:02.837Z,33.50
2023-02-22T21:49:05.769Z,35.00
2023-02-22T21:54:09.503Z,33.00
2023-02-22T21:59:14.683Z,32.50
2023-02-22T22:04:19.129Z,32.00
2023-02-22T22:09:23.549Z,33.67
2023-02-22T22:14:28.116Z,31.75
2023-02-22T22:19:31.776Z,31.67
2023-02-22T22:24:35.142Z,32.00
2023-02-22T22:29:39.287Z,32.00
2023-02-22T22:34:42.570Z,30.33
2023-02-22T22:39:45.572Z,32.00
2023-02-22T22:44:51.565Z,32.00
2023-02-22T22:50:01.280Z,31.33
2023-02-22T22:55:07.012Z,31.00
2023-02-22T23:00:32.797Z,31.00
2023-02-22T23:05:39.946Z,30.00
2023-02-22T23:10:42.902Z,30.00
2023-02-22T23:15:48.092Z,32.00
2023-02-22T23:20:55.123Z,29.00
2023-02-22T23:26:11.384Z,30.00
2023-02-22T23:31:16.814Z,30.00
2023-02-22T23:36:20.024Z,30.33
2023-02-22T23:41:25.003Z,28.33
2023-02-22T23:46:32.665Z,30.67
2023-02-22T23:51:39.366Z,29.00
2023-02-22T23:56:47.061Z,29.00
